Time;durP1;ratioP1;P1;durP2;ratioP2;P2;SDS_P1;SDS_P2;PMS_P1;PMS_P2;Temp;Humidity;BMP_temperature;BMP_pressure;BME280_temperature;BME280_humidity;BME280_pressure;Samples;Min_cycle;Max_cycle;Signal;HPM_P1;HPM_P2
2022/05/14 00:00:50;;;;;;;10.35;3.00;;;12.60;99.90;;;;;;5072266;28;20067;-71
2022/05/14 00:03:16;;;;;;;10.30;2.92;;;12.60;99.90;;;;;;5081135;28;20086;-71
2022/05/14 00:05:42;;;;;;;7.03;2.33;;;12.60;99.90;;;;;;5104757;28;20067;-71
2022/05/14 00:08:09;;;;;;;8.13;2.25;;;12.50;99.90;;;;;;5060828;28;20446;-71
2022/05/14 00:13:19;;;;;;;5.65;2.20;;;12.50;99.90;;;;;;5095663;28;20079;-71
2022/05/14 00:15:45;;;;;;;9.98;2.75;;;12.50;99.90;;;;;;5073025;28;20071;-71
2022/05/14 00:18:11;;;;;;;8.32;2.78;;;12.40;99.90;;;;;;5090820;28;20040;-71
2022/05/14 00:20:38;;;;;;;7.82;2.35;;;12.30;99.90;;;;;;5094002;28;20500;-71
2022/05/14 00:23:05;;;;;;;10.45;2.78;;;12.30;99.90;;;;;;5094631;28;20051;-71
2022/05/14 00:25:31;;;;;;;6.88;2.38;;;12.30;99.90;;;;;;5081542;28;20047;-71
2022/05/14 00:27:57;;;;;;;9.25;2.58;;;12.30;99.90;;;;;;5104726;28;20044;-71
2022/05/14 00:30:25;;;;;;;8.23;2.85;;;12.30;99.90;;;;;;5092408;28;20432;-71
2022/05/14 00:32:51;;;;;;;9.93;2.60;;;12.20;99.90;;;;;;5087341;28;20482;-71
2022/05/14 00:35:17;;;;;;;13.13;2.70;;;12.20;99.90;;;;;;5104861;28;20058;-71
2022/05/14 00:37:43;;;;;;;12.52;2.72;;;12.20;99.90;;;;;;5109551;28;20467;-71
2022/05/14 00:40:14;;;;;;;7.95;2.60;;;12.20;99.90;;;;;;5104859;28;20082;-71
2022/05/14 00:42:40;;;;;;;9.50;2.67;;;12.20;99.90;;;;;;5088783;28;20036;-71
2022/05/14 00:45:08;;;;;;;7.18;2.63;;;12.20;99.90;;;;;;5072037;28;20085;-71
2022/05/14 00:47:36;;;;;;;9.98;2.63;;;12.10;99.90;;;;;;5091148;28;20048;-71
2022/05/14 00:50:17;;;;;;;9.45;2.63;;;12.10;99.90;;;;;;5109596;28;20046;-71
2022/05/14 00:52:44;;;;;;;8.38;2.47;;;12.10;99.90;;;;;;5109289;28;20126;-71
2022/05/14 00:55:10;;;;;;;10.15;2.60;;;12.20;99.90;;;;;;5083018;28;20063;-71
2022/05/14 00:57:38;;;;;;;8.80;2.38;;;12.10;99.90;;;;;;5102734;28;20036;-71
2022/05/14 01:00:13;;;;;;;8.68;2.05;;;12.20;99.90;;;;;;5111903;28;20393;-71
2022/05/14 01:02:39;;;;;;;10.05;2.78;;;12.20;99.90;;;;;;5089118;28;20040;-71
2022/05/14 01:05:06;;;;;;;6.47;2.13;;;12.20;99.90;;;;;;5097884;28;20412;-71
2022/05/14 01:07:33;;;;;;;6.50;2.17;;;12.20;99.90;;;;;;5101565;28;20083;-71
2022/05/14 01:10:01;;;;;;;7.00;2.22;;;12.20;99.90;;;;;;5093122;28;20035;-71
2022/05/14 01:12:29;;;;;;;10.15;2.55;;;12.20;99.90;;;;;;5111610;28;20122;-72
2022/05/14 01:15:05;;;;;;;9.02;2.60;;;12.20;99.90;;;;;;5099750;28;20042;-71
2022/05/14 01:17:31;;;;;;;9.20;2.70;;;12.20;99.90;;;;;;5102113;28;20046;-71
2022/05/14 01:19:56;;;;;;;7.00;2.47;;;12.20;99.90;;;;;;5094890;28;20039;-72
2022/05/14 01:22:42;;;;;;;5.50;2.00;;;12.10;99.90;;;;;;5081781;28;20062;-72
2022/05/14 01:28:11;;;;;;;8.13;2.63;;;12.10;99.90;;;;;;5095140;28;20402;-72
2022/05/14 01:31:04;;;;;;;8.85;2.55;;;12.10;99.90;;;;;;5076960;28;20089;-71
2022/05/14 01:33:29;;;;;;;5.63;2.22;;;12.10;99.90;;;;;;5076204;28;20052;-71
2022/05/14 01:35:55;;;;;;;9.07;2.50;;;12.10;99.90;;;;;;5097626;28;20047;-72
2022/05/14 01:38:23;;;;;;;8.93;3.20;;;12.00;99.90;;;;;;5075684;28;20040;-72
2022/05/14 01:40:49;;;;;;;12.32;3.63;;;12.10;99.90;;;;;;5097904;28;20127;-71
2022/05/14 01:43:15;;;;;;;6.47;2.50;;;12.00;99.90;;;;;;5081589;28;20118;-72
2022/05/14 01:45:41;;;;;;;9.45;3.13;;;12.00;99.90;;;;;;5099372;28;20493;-72
2022/05/14 01:48:08;;;;;;;8.35;2.67;;;12.00;99.90;;;;;;5076902;28;20456;-72
2022/05/14 01:50:34;;;;;;;7.47;2.40;;;12.00;99.90;;;;;;5107612;28;20127;-72
2022/05/14 01:53:00;;;;;;;8.60;2.65;;;11.90;99.90;;;;;;5099365;28;20118;-72
2022/05/14 01:55:25;;;;;;;9.75;2.70;;;11.90;99.90;;;;;;5091391;28;20489;-72
2022/05/14 01:57:51;;;;;;;11.70;2.97;;;11.90;99.90;;;;;;5080537;28;20035;-72
2022/05/14 02:00:18;;;;;;;16.95;4.13;;;11.80;99.90;;;;;;5096379;28;20169;-72
2022/05/14 02:02:44;;;;;;;7.45;2.53;;;11.80;99.90;;;;;;5094909;28;20040;-72
2022/05/14 02:05:09;;;;;;;9.73;3.03;;;11.80;99.90;;;;;;5103438;28;20032;-72
2022/05/14 02:07:35;;;;;;;12.85;3.03;;;11.90;99.90;;;;;;5111836;28;20050;-72
2022/05/14 02:10:01;;;;;;;11.15;3.00;;;11.80;99.90;;;;;;5105945;28;20090;-72
2022/05/14 02:12:26;;;;;;;9.70;2.55;;;11.80;99.90;;;;;;5099496;28;20031;-72
2022/05/14 02:14:52;;;;;;;6.55;2.10;;;11.80;99.90;;;;;;5086330;28;20048;-71
2022/05/14 02:17:18;;;;;;;8.77;2.40;;;11.70;99.90;;;;;;5103013;28;20043;-72
2022/05/14 02:19:43;;;;;;;7.20;2.05;;;11.70;99.90;;;;;;5082132;28;20027;-72
2022/05/14 02:22:09;;;;;;;10.02;2.60;;;11.60;99.90;;;;;;5082613;28;20039;-72
2022/05/14 02:24:36;;;;;;;5.43;2.28;;;11.60;99.90;;;;;;5102336;28;20119;-72
2022/05/14 02:27:03;;;;;;;9.60;3.10;;;11.50;99.90;;;;;;5096987;28;20040;-72
2022/05/14 02:29:50;;;;;;;9.48;2.85;;;11.40;99.90;;;;;;5117577;28;20482;-71
2022/05/14 02:32:14;;;;;;;12.38;3.05;;;11.40;99.90;;;;;;5110223;28;20088;-72
2022/05/14 02:34:41;;;;;;;12.40;3.10;;;11.40;99.90;;;;;;5100082;28;20032;-71
2022/05/14 02:37:07;;;;;;;11.43;3.40;;;11.40;99.90;;;;;;5088692;28;20039;-72
2022/05/14 02:39:32;;;;;;;9.80;2.63;;;11.40;99.90;;;;;;5091693;28;20061;-72
2022/05/14 02:41:58;;;;;;;12.20;3.33;;;11.40;99.90;;;;;;5086723;28;20079;-71
2022/05/14 02:44:24;;;;;;;13.98;3.35;;;11.30;99.90;;;;;;5090304;28;20089;-72
2022/05/14 02:46:49;;;;;;;9.30;3.10;;;11.30;99.90;;;;;;5122825;27;20105;-72
2022/05/14 02:49:15;;;;;;;12.60;3.10;;;11.30;99.90;;;;;;5097644;28;20092;-72
2022/05/14 02:51:40;;;;;;;16.98;4.00;;;11.20;99.90;;;;;;5094113;28;20039;-72
2022/05/14 02:54:06;;;;;;;14.43;4.13;;;11.30;99.90;;;;;;5073481;28;20042;-72
2022/05/14 02:56:32;;;;;;;13.07;3.42;;;11.20;99.90;;;;;;5089290;28;20134;-72
2022/05/14 02:59:09;;;;;;;14.00;4.00;;;11.20;99.90;;;;;;5090031;28;20050;-72
2022/05/14 03:01:37;;;;;;;9.18;2.92;;;11.10;99.90;;;;;;5099983;28;20073;-72
2022/05/14 03:04:07;;;;;;;10.88;3.45;;;11.10;99.90;;;;;;5099648;28;20032;-72
2022/05/14 03:06:32;;;;;;;11.80;3.13;;;11.10;99.90;;;;;;5101128;28;20046;-72
2022/05/14 03:08:58;;;;;;;12.98;3.58;;;11.00;99.90;;;;;;5100721;28;20044;-72
2022/05/14 03:11:24;;;;;;;6.85;2.53;;;11.00;99.90;;;;;;5092908;28;20044;-72
2022/05/14 03:13:49;;;;;;;9.38;3.30;;;10.90;99.90;;;;;;5079244;28;20433;-72
2022/05/14 03:16:15;;;;;;;8.43;2.63;;;10.90;99.90;;;;;;5104159;28;20039;-72
2022/05/14 03:18:41;;;;;;;13.35;3.03;;;10.80;99.90;;;;;;5106592;28;20390;-72
2022/05/14 03:21:07;;;;;;;10.52;3.65;;;10.80;99.90;;;;;;5083297;28;20094;-71
2022/05/14 03:23:33;;;;;;;12.75;3.65;;;10.80;99.90;;;;;;5087219;28;20040;-72
2022/05/14 03:25:59;;;;;;;12.15;3.40;;;10.80;99.90;;;;;;5072707;28;20035;-72
2022/05/14 03:28:25;;;;;;;12.43;3.80;;;10.70;99.90;;;;;;5077513;28;20065;-71
2022/05/14 03:30:50;;;;;;;14.95;4.13;;;10.70;99.90;;;;;;5076711;28;20454;-72
2022/05/14 03:33:16;;;;;;;10.43;2.70;;;10.70;99.90;;;;;;5095257;28;20043;-72
2022/05/14 03:35:42;;;;;;;10.13;3.10;;;10.60;99.90;;;;;;5092550;28;20598;-78
2022/05/14 03:38:08;;;;;;;19.45;5.05;;;10.60;99.90;;;;;;5106074;28;20331;-79
2022/05/14 03:40:34;;;;;;;12.70;3.53;;;10.60;99.90;;;;;;5090599;28;20475;-78
2022/05/14 03:42:59;;;;;;;14.32;3.90;;;10.60;99.90;;;;;;5098487;28;20556;-78
2022/05/14 03:45:25;;;;;;;18.85;4.47;;;10.70;99.90;;;;;;5074697;28;20100;-78
2022/05/14 03:47:51;;;;;;;13.52;4.30;;;10.70;99.90;;;;;;5086014;28;20093;-78
2022/05/14 03:50:16;;;;;;;11.02;3.60;;;10.80;99.90;;;;;;5109472;28;20151;-79
2022/05/14 03:52:42;;;;;;;12.30;3.70;;;10.70;99.90;;;;;;5074357;28;20123;-78
2022/05/14 03:55:08;;;;;;;12.25;3.40;;;10.60;99.90;;;;;;5090510;28;20058;-78
2022/05/14 03:57:34;;;;;;;20.17;5.25;;;10.70;99.90;;;;;;5082563;28;20069;-79
2022/05/14 04:00:01;;;;;;;12.05;4.05;;;10.60;99.90;;;;;;5091017;28;20036;-78
2022/05/14 04:02:27;;;;;;;11.98;3.72;;;10.50;99.90;;;;;;5097851;28;20051;-79
2022/05/14 04:04:53;;;;;;;17.50;4.85;;;10.60;99.90;;;;;;5076020;28;20044;-78
2022/05/14 04:07:19;;;;;;;14.27;4.10;;;10.60;99.90;;;;;;5100951;28;20066;-78
2022/05/14 04:09:45;;;;;;;;;;;10.60;99.90;;;;;;5102824;28;20044;-78
2022/05/14 04:12:10;;;;;;;9.20;3.42;;;10.60;99.90;;;;;;5084006;28;19919;-78
2022/05/14 04:14:36;;;;;;;17.05;3.67;;;10.60;99.90;;;;;;5102988;28;20043;-79
2022/05/14 04:17:02;;;;;;;11.70;3.38;;;10.60;99.90;;;;;;5112011;28;20078;-78
2022/05/14 04:19:28;;;;;;;10.13;3.60;;;10.60;99.90;;;;;;5085979;28;20160;-78
2022/05/14 04:21:53;;;;;;;8.50;3.33;;;10.60;99.90;;;;;;5105616;28;20032;-78
2022/05/14 04:24:19;;;;;;;9.75;3.00;;;10.60;99.90;;;;;;5081030;28;20067;-78
2022/05/14 04:26:45;;;;;;;10.10;3.35;;;10.60;99.90;;;;;;5104787;28;20123;-78
2022/05/14 04:29:10;;;;;;;8.25;3.15;;;10.60;99.90;;;;;;5106536;28;20043;-79
2022/05/14 04:31:36;;;;;;;10.32;3.70;;;10.70;99.90;;;;;;5092823;28;20116;-78
2022/05/14 04:34:02;;;;;;;13.93;3.90;;;10.70;99.90;;;;;;5077132;28;20047;-78
2022/05/14 04:36:28;;;;;;;19.40;5.53;;;10.70;99.90;;;;;;5094512;28;20055;-78
2022/05/14 04:38:54;;;;;;;12.60;4.07;;;10.70;99.90;;;;;;5081826;28;20036;-78
2022/05/14 04:41:19;;;;;;;12.65;3.53;;;10.70;99.90;;;;;;5093224;28;20118;-78
2022/05/14 04:43:45;;;;;;;13.07;4.10;;;10.80;99.90;;;;;;5075670;28;20055;-78
2022/05/14 04:46:11;;;;;;;16.80;4.82;;;10.70;99.90;;;;;;5058911;28;20044;-78
2022/05/14 04:48:37;;;;;;;10.38;3.40;;;10.80;99.90;;;;;;5085460;28;20065;-78
2022/05/14 04:51:03;;;;;;;10.30;3.40;;;10.80;99.90;;;;;;5098977;28;20047;-78
2022/05/14 04:53:29;;;;;;;10.52;3.58;;;10.80;99.90;;;;;;5096609;28;20040;-80
2022/05/14 04:55:55;;;;;;;13.75;4.03;;;10.90;99.90;;;;;;5072968;28;20051;-78
2022/05/14 04:58:21;;;;;;;12.73;4.03;;;11.00;99.90;;;;;;5097349;28;20040;-78
2022/05/14 05:00:47;;;;;;;9.30;3.17;;;11.00;99.90;;;;;;5100213;28;20125;-78
2022/05/14 05:03:19;;;;;;;9.80;3.00;;;11.00;99.90;;;;;;5077306;28;20032;-78
2022/05/14 05:05:51;;;;;;;9.85;2.95;;;11.10;99.90;;;;;;5110777;28;20044;-78
2022/05/14 05:08:18;;;;;;;10.18;4.13;;;11.20;99.90;;;;;;5083996;28;20118;-78
2022/05/14 05:10:44;;;;;;;10.25;3.70;;;11.20;99.90;;;;;;5100680;28;20035;-78
2022/05/14 05:13:19;;;;;;;10.82;3.63;;;11.20;99.90;;;;;;5102234;28;20108;-78
2022/05/14 05:15:45;;;;;;;11.43;3.63;;;11.30;99.90;;;;;;5105936;28;20524;-78
2022/05/14 05:18:12;;;;;;;8.70;2.95;;;11.30;99.90;;;;;;5101162;28;20186;-78
2022/05/14 05:20:40;;;;;;;9.10;3.17;;;11.50;99.90;;;;;;5101875;28;20044;-78
2022/05/14 05:23:06;;;;;;;14.55;3.60;;;11.50;99.90;;;;;;5099968;28;20044;-78
2022/05/14 05:25:32;;;;;;;;;;;11.60;99.90;;;;;;5088359;28;20412;-78
2022/05/14 05:27:58;;;;;;;16.52;4.30;;;11.70;99.90;;;;;;5106099;28;19976;-79
2022/05/14 05:30:24;;;;;;;12.90;3.50;;;11.70;99.90;;;;;;5098321;28;20044;-78
2022/05/14 05:32:51;;;;;;;;;;;11.80;99.90;;;;;;5093733;28;20079;-78
2022/05/14 05:35:17;;;;;;;11.75;3.60;;;11.80;99.90;;;;;;5094284;28;19924;-78
2022/05/14 05:37:42;;;;;;;15.20;4.53;;;11.80;99.90;;;;;;5095290;28;20047;-78
2022/05/14 05:40:08;;;;;;;8.27;2.97;;;11.80;99.90;;;;;;5094595;28;20387;-78
2022/05/14 05:42:34;;;;;;;11.80;3.05;;;11.90;99.90;;;;;;5098176;28;20325;-78
2022/05/14 05:45:01;;;;;;;15.73;4.07;;;12.00;99.90;;;;;;5105800;27;20069;-78
2022/05/14 05:47:27;;;;;;;15.15;4.25;;;12.10;99.90;;;;;;5102635;28;20406;-70
2022/05/14 05:49:53;;;;;;;16.83;4.80;;;12.20;99.90;;;;;;5101607;27;20052;-70
2022/05/14 05:52:19;;;;;;;17.98;4.20;;;12.20;99.90;;;;;;5084061;28;20040;-70
2022/05/14 05:57:39;;;;;;;11.63;4.07;;;12.40;99.90;;;;;;5098634;28;20383;-70
2022/05/14 06:00:10;;;;;;;14.15;3.72;;;12.50;99.90;;;;;;5076077;28;20047;-71
2022/05/14 06:02:36;;;;;;;19.25;4.57;;;12.70;99.90;;;;;;5085750;28;20036;-70
2022/05/14 06:05:01;;;;;;;15.35;3.95;;;12.90;99.90;;;;;;5086765;28;20502;-70
2022/05/14 06:07:27;;;;;;;9.40;3.33;;;13.40;99.90;;;;;;5078943;28;20055;-71
2022/05/14 06:09:53;;;;;;;11.48;3.50;;;14.00;99.90;;;;;;5060544;28;20481;-70
2022/05/14 06:12:18;;;;;;;16.50;4.43;;;14.30;99.90;;;;;;5073649;28;20048;-70
2022/05/14 06:14:44;;;;;;;12.55;3.88;;;14.30;99.90;;;;;;5074680;28;20044;-70
2022/05/14 06:17:11;;;;;;;16.33;4.03;;;14.10;99.90;;;;;;5075449;28;20039;-70
2022/05/14 06:19:36;;;;;;;19.40;4.82;;;14.00;99.90;;;;;;5074457;28;20032;-70
2022/05/14 06:22:04;;;;;;;17.67;4.05;;;13.90;99.90;;;;;;5082381;28;20034;-70
2022/05/14 06:24:30;;;;;;;14.00;3.97;;;13.90;99.90;;;;;;5083279;28;20027;-70
2022/05/14 06:26:56;;;;;;;15.82;4.60;;;13.90;99.90;;;;;;5101407;28;20085;-69
2022/05/14 06:29:22;;;;;;;12.48;4.20;;;13.90;99.90;;;;;;5094682;28;20047;-70
2022/05/14 06:31:48;;;;;;;17.05;4.57;;;13.90;99.90;;;;;;5089219;28;20644;-70
2022/05/14 06:34:13;;;;;;;;;;;13.90;99.90;;;;;;5086811;28;20055;-69
2022/05/14 06:36:39;;;;;;;16.83;4.32;;;14.10;99.90;;;;;;5076921;28;19919;-70
2022/05/14 06:39:06;;;;;;;17.52;4.40;;;14.10;99.90;;;;;;5091332;28;20052;-70
2022/05/14 06:41:31;;;;;;;15.45;4.30;;;14.20;99.90;;;;;;5074590;28;20059;-69
2022/05/14 06:43:57;;;;;;;18.33;4.22;;;14.20;99.90;;;;;;5091163;28;20036;-69
2022/05/14 06:46:23;;;;;;;17.17;4.15;;;14.20;99.90;;;;;;5086875;28;20048;-70
2022/05/14 06:48:48;;;;;;;15.20;4.32;;;14.30;99.90;;;;;;5105657;28;20343;-70
2022/05/14 06:51:19;;;;;;;13.75;3.38;;;14.20;99.90;;;;;;5092956;28;20047;-70
2022/05/14 06:53:46;;;;;;;15.13;3.85;;;14.40;99.90;;;;;;5110853;28;20043;-70
2022/05/14 06:56:13;;;;;;;14.20;4.00;;;14.40;99.90;;;;;;5102739;28;20051;-70
2022/05/14 06:58:40;;;;;;;16.52;4.38;;;14.60;99.90;;;;;;5098761;28;20487;-70
2022/05/14 07:01:08;;;;;;;17.77;3.97;;;14.60;99.90;;;;;;5078323;28;20031;-70
2022/05/14 07:09:11;;;;;;;15.48;3.72;;;14.80;99.90;;;;;;5098158;28;20093;-70
2022/05/14 07:11:40;;;;;;;16.77;4.00;;;14.90;99.90;;;;;;5094197;28;20523;-70
2022/05/14 07:14:06;;;;;;;15.20;3.78;;;14.90;99.90;;;;;;5081381;28;20509;-70
2022/05/14 07:16:32;;;;;;;;;;;15.00;99.90;;;;;;5086444;28;20479;-70
2022/05/14 07:18:57;;;;;;;13.55;3.40;;;15.10;99.90;;;;;;5096256;28;19973;-74
2022/05/14 07:21:23;;;;;;;15.68;3.60;;;15.20;99.90;;;;;;5106380;28;20035;-70
2022/05/14 07:23:49;;;;;;;12.73;3.67;;;15.30;99.90;;;;;;5110053;28;20122;-70
2022/05/14 07:26:15;;;;;;;10.65;3.13;;;15.20;99.90;;;;;;5071593;28;20078;-70
2022/05/14 07:28:42;;;;;;;11.77;3.47;;;15.40;99.90;;;;;;5097551;28;20116;-70
2022/05/14 07:31:08;;;;;;;12.65;4.13;;;15.30;99.90;;;;;;5080177;28;20075;-70
2022/05/14 07:33:34;;;;;;;;;;;15.30;99.90;;;;;;5103539;28;20039;-74
2022/05/14 07:36:14;;;;;;;12.70;3.50;;;15.40;99.90;;;;;;5085975;28;19920;-82
2022/05/14 07:38:40;;;;;;;10.35;2.95;;;15.50;99.90;;;;;;5103189;28;20100;-80
2022/05/14 07:41:06;;;;;;;10.48;3.08;;;15.90;99.90;;;;;;5099269;28;20451;-79
2022/05/14 07:43:37;;;;;;;13.13;3.22;;;16.00;99.90;;;;;;5100885;28;20031;-78
2022/05/14 07:46:08;;;;;;;11.05;3.50;;;16.00;99.90;;;;;;5090273;28;20432;-77
2022/05/14 07:48:38;;;;;;;8.85;2.75;;;16.20;99.90;;;;;;5123445;28;20101;-80
2022/05/14 07:51:06;;;;;;;10.38;2.85;;;16.40;99.90;;;;;;5111624;28;20086;-79
2022/05/14 07:53:32;;;;;;;11.02;3.10;;;16.70;99.90;;;;;;5109581;28;20044;-79
2022/05/14 07:56:03;;;;;;;11.38;3.65;;;16.80;99.90;;;;;;5092390;28;20055;-79
2022/05/14 07:58:29;;;;;;;7.57;2.92;;;16.70;99.90;;;;;;5121192;28;20040;-79
2022/05/14 08:00:56;;;;;;;11.32;3.47;;;16.90;99.90;;;;;;5125603;28;20120;-79
2022/05/14 08:03:23;;;;;;;14.15;3.60;;;16.80;99.90;;;;;;5127148;28;20032;-79
2022/05/14 08:05:50;;;;;;;9.45;2.90;;;16.70;99.90;;;;;;5111856;28;20087;-79
2022/05/14 08:08:16;;;;;;;8.07;2.88;;;17.00;99.90;;;;;;5091272;28;20048;-73
2022/05/14 08:10:43;;;;;;;12.68;3.58;;;17.00;99.90;;;;;;5103452;28;20079;-74
2022/05/14 08:13:14;;;;;;;12.32;3.38;;;17.10;99.90;;;;;;5082993;28;20051;-75
2022/05/14 08:15:40;;;;;;;10.10;3.22;;;17.20;99.90;;;;;;5095893;28;20085;-75
2022/05/14 08:18:06;;;;;;;;;;;17.20;99.90;;;;;;5101481;28;20035;-72
2022/05/14 08:20:32;;;;;;;10.55;3.03;;;17.30;99.90;;;;;;5087793;28;19958;-72
2022/05/14 08:25:41;;;;;;;9.00;2.58;;;17.50;99.90;;;;;;5096858;28;20142;-74
2022/05/14 08:28:07;;;;;;;;;;;17.70;99.90;;;;;;5072213;28;20119;-73
2022/05/14 08:30:34;;;;;;;12.95;3.58;;;17.60;99.90;;;;;;5086870;28;19927;-74
2022/05/14 08:33:00;;;;;;;9.05;2.78;;;17.60;99.90;;;;;;5093000;28;20093;-73
2022/05/14 08:35:27;;;;;;;11.43;3.55;;;18.10;99.90;;;;;;5102719;28;20063;-75
2022/05/14 08:37:55;;;;;;;9.63;2.85;;;17.90;99.90;;;;;;5083816;28;20043;-75
2022/05/14 08:40:29;;;;;;;8.50;2.70;;;17.90;99.90;;;;;;5080008;28;20498;-74
2022/05/14 08:43:01;;;;;;;10.10;3.00;;;18.10;99.90;;;;;;5110278;28;20105;-74
2022/05/14 08:45:29;;;;;;;9.73;3.42;;;18.10;99.90;;;;;;5106824;28;20051;-74
2022/05/14 08:48:05;;;;;;;11.80;3.47;;;18.40;99.90;;;;;;5090675;28;20532;-74
2022/05/14 08:50:34;;;;;;;13.25;3.80;;;18.10;99.90;;;;;;5088513;28;20126;-74
2022/05/14 08:53:06;;;;;;;11.07;3.42;;;17.80;99.90;;;;;;5097011;28;20073;-73
2022/05/14 08:55:49;;;;;;;13.20;3.63;;;18.00;99.90;;;;;;5087715;28;20123;-74
2022/05/14 08:58:46;;;;;;;12.07;3.33;;;18.00;99.90;;;;;;5099419;28;20040;-74
2022/05/14 09:01:19;;;;;;;9.38;3.15;;;18.20;99.90;;;;;;5111234;28;20661;-74
2022/05/14 09:03:45;;;;;;;12.68;3.33;;;18.40;99.90;;;;;;5082060;28;20036;-74
2022/05/14 09:06:11;;;;;;;13.05;3.65;;;18.20;99.90;;;;;;5099029;28;20385;-74
2022/05/14 09:08:36;;;;;;;;;;;18.10;99.90;;;;;;5084563;28;20137;-74
2022/05/14 09:11:16;;;;;;;11.73;3.85;;;17.80;99.90;;;;;;5099949;28;20271;-74
2022/05/14 09:13:45;;;;;;;11.02;3.50;;;17.60;99.90;;;;;;5090725;28;20120;-73
2022/05/14 09:16:22;;;;;;;11.65;3.47;;;17.90;99.90;;;;;;5083233;28;20048;-73
2022/05/14 09:18:49;;;;;;;12.45;3.70;;;18.40;99.90;;;;;;5084192;28;20044;-77
2022/05/14 09:21:27;;;;;;;12.75;3.42;;;18.70;99.90;;;;;;5067307;28;20044;-77
2022/05/14 09:23:59;;;;;;;9.88;3.80;;;19.20;99.60;;;;;;5076462;28;20043;-77
2022/05/14 09:26:35;;;;;;;8.45;2.78;;;19.10;98.80;;;;;;5092525;28;20055;-77
2022/05/14 09:29:28;;;;;;;13.45;3.85;;;19.10;98.30;;;;;;5093342;28;20093;-77
2022/05/14 09:32:00;;;;;;;13.00;3.42;;;18.60;99.20;;;;;;5092510;28;20047;-77
2022/05/14 09:34:31;;;;;;;11.18;3.35;;;18.60;99.60;;;;;;5093232;28;20044;-76
2022/05/14 09:37:16;;;;;;;10.63;3.35;;;19.00;99.90;;;;;;5092871;28;20214;-77
2022/05/14 09:39:42;;;;;;;7.88;2.90;;;19.20;97.60;;;;;;5093147;28;20361;-77
2022/05/14 09:42:24;;;;;;;10.80;3.47;;;19.20;99.30;;;;;;5093228;28;20451;-76
2022/05/14 09:44:55;;;;;;;10.93;3.17;;;18.70;98.30;;;;;;5093178;28;20122;-77
2022/05/14 09:47:33;;;;;;;13.02;3.53;;;19.10;98.30;;;;;;5093129;28;20054;-76
2022/05/14 09:50:15;;;;;;;11.10;3.53;;;19.00;96.60;;;;;;5092601;28;20036;-77
2022/05/14 09:52:41;;;;;;;11.80;3.60;;;19.10;98.00;;;;;;5093827;28;20044;-77
2022/05/14 09:55:08;;;;;;;;;;;18.70;97.50;;;;;;5059226;28;20125;-76
2022/05/14 09:57:57;;;;;;;11.30;3.45;;;18.60;98.40;;;;;;5092504;28;19916;-77
2022/05/14 10:00:26;;;;;;;14.85;3.90;;;18.10;98.80;;;;;;5076599;28;20069;-77
2022/05/14 10:02:51;;;;;;;11.80;3.85;;;18.20;99.80;;;;;;5092373;28;20042;-76
2022/05/14 10:05:32;;;;;;;;;;;18.50;99.20;;;;;;5101807;28;20039;-77
2022/05/14 10:08:04;;;;;;;10.20;3.10;;;19.00;98.60;;;;;;5094791;28;20318;-76
2022/05/14 10:10:52;;;;;;;9.38;3.00;;;18.80;98.80;;;;;;5112396;28;20040;-76
2022/05/14 10:13:41;;;;;;;11.50;3.50;;;18.90;98.10;;;;;;5095389;28;20086;-77
2022/05/14 10:16:39;;;;;;;13.43;4.25;;;18.80;97.70;;;;;;5110282;28;20047;-77
2022/05/14 10:19:29;;;;;;;10.27;3.67;;;18.80;97.90;;;;;;5110259;28;20048;-76
2022/05/14 10:21:55;;;;;;;12.88;3.50;;;19.20;97.70;;;;;;5094120;28;20545;-77
2022/05/14 10:27:34;;;;;;;11.57;3.40;;;20.30;95.30;;;;;;5111706;28;19927;-77
2022/05/14 10:30:28;;;;;;;13.05;3.55;;;20.00;95.40;;;;;;5088469;28;20087;-77
2022/05/14 10:33:23;;;;;;;11.07;3.28;;;19.40;95.40;;;;;;5072740;28;20109;-77
2022/05/14 10:36:05;;;;;;;13.07;4.07;;;20.10;96.00;;;;;;5089230;28;20048;-77
2022/05/14 10:38:50;;;;;;;11.93;3.63;;;20.30;94.20;;;;;;5074573;28;20106;-77
2022/05/14 10:41:29;;;;;;;11.98;3.42;;;20.10;94.80;;;;;;5091310;28;20048;-76
2022/05/14 10:44:01;;;;;;;9.93;3.25;;;20.20;95.20;;;;;;5091110;28;20047;-76
2022/05/14 10:46:28;;;;;;;15.43;3.78;;;20.60;95.60;;;;;;5090997;28;20050;-76
2022/05/14 10:48:56;;;;;;;10.82;3.58;;;20.50;93.50;;;;;;5074178;28;20040;-77
2022/05/14 10:51:29;;;;;;;7.60;2.88;;;20.80;93.70;;;;;;5091114;28;20499;-76
2022/05/14 10:53:57;;;;;;;11.27;3.20;;;21.40;94.10;;;;;;5091265;28;20044;-78
2022/05/14 10:56:33;;;;;;;12.35;3.80;;;21.40;92.00;;;;;;5091480;28;20109;-77
2022/05/14 10:59:06;;;;;;;10.10;3.10;;;20.50;92.60;;;;;;5074316;28;20135;-77
2022/05/14 11:01:52;;;;;;;10.27;3.45;;;20.20;94.30;;;;;;5090990;28;20274;-77
2022/05/14 11:04:19;;;;;;;13.70;3.53;;;20.10;94.10;;;;;;5091514;28;20443;-77
2022/05/14 11:06:57;;;;;;;9.93;3.28;;;19.40;94.50;;;;;;5090893;28;20044;-76
2022/05/14 11:09:39;;;;;;;12.55;3.65;;;19.00;94.90;;;;;;5110483;28;20040;-77
2022/05/14 11:12:24;;;;;;;9.85;3.60;;;18.80;95.20;;;;;;5091071;28;20032;-76
2022/05/14 11:14:53;;;;;;;12.07;3.58;;;18.60;95.80;;;;;;5090515;28;20048;-78
2022/05/14 11:17:28;;;;;;;14.55;3.92;;;18.50;95.60;;;;;;5091114;28;20475;-77
2022/05/14 11:20:02;;;;;;;10.35;3.20;;;18.40;96.50;;;;;;5091231;28;20044;-77
2022/05/14 11:22:39;;;;;;;9.68;3.03;;;18.40;96.80;;;;;;5108016;28;20040;-76
2022/05/14 11:25:16;;;;;;;13.50;3.42;;;18.90;96.30;;;;;;5091147;28;20429;-77
2022/05/14 11:28:02;;;;;;;13.88;3.72;;;19.70;94.70;;;;;;5091031;28;20084;-77
2022/05/14 11:30:45;;;;;;;13.23;3.83;;;20.20;92.70;;;;;;5091488;28;20510;-77
2022/05/14 11:33:26;;;;;;;15.98;4.55;;;20.30;93.00;;;;;;5091075;28;20437;-77
2022/05/14 11:36:05;;;;;;;12.70;3.85;;;20.60;93.30;;;;;;5090311;28;20048;-77
2022/05/14 11:38:38;;;;;;;9.77;3.30;;;20.90;93.40;;;;;;5089662;28;20040;-77
2022/05/14 11:41:31;;;;;;;10.20;3.55;;;21.60;93.20;;;;;;5104347;28;20065;-77
2022/05/14 11:43:57;;;;;;;13.02;3.88;;;21.20;92.00;;;;;;5110671;28;20398;-77
2022/05/14 11:46:48;;;;;;;13.15;3.95;;;20.70;92.10;;;;;;5109720;28;20055;-77
2022/05/14 11:49:30;;;;;;;11.48;3.58;;;20.10;92.80;;;;;;5110880;28;20054;-77
2022/05/14 11:52:12;;;;;;;10.73;3.42;;;19.80;94.10;;;;;;5110773;28;20047;-77
2022/05/14 11:54:47;;;;;;;10.50;3.58;;;19.50;94.10;;;;;;5103770;28;20075;-76
2022/05/14 11:57:17;;;;;;;10.15;3.05;;;19.50;95.00;;;;;;5074526;28;20040;-77
2022/05/14 12:00:08;;;;;;;13.55;3.80;;;20.20;94.30;;;;;;5090510;28;20040;-77
2022/05/14 12:02:57;;;;;;;13.30;4.15;;;19.80;93.00;;;;;;5089946;28;20127;-77
2022/05/14 12:05:31;;;;;;;13.07;3.95;;;19.40;93.20;;;;;;5073285;28;20138;-77
2022/05/14 12:08:17;;;;;;;12.23;3.60;;;19.70;93.60;;;;;;5089462;28;20048;-76
2022/05/14 12:10:55;;;;;;;12.35;3.65;;;20.30;93.90;;;;;;5109501;28;20047;-77
2022/05/14 12:13:43;;;;;;;14.13;3.55;;;21.00;92.70;;;;;;5110300;28;20035;-77
2022/05/14 12:16:11;;;;;;;16.05;3.95;;;21.20;91.70;;;;;;5110115;28;20047;-77
2022/05/14 12:18:44;;;;;;;10.48;3.67;;;21.40;90.00;;;;;;5110078;28;20046;-77
2022/05/14 12:21:11;;;;;;;13.18;4.00;;;21.70;90.70;;;;;;5110579;28;20378;-77
2022/05/14 12:23:38;;;;;;;12.18;3.80;;;21.90;90.80;;;;;;5078901;28;20043;-78
2022/05/14 12:26:07;;;;;;;16.33;4.57;;;21.40;87.00;;;;;;5089871;28;20040;-77
2022/05/14 12:28:35;;;;;;;13.27;3.63;;;21.40;89.90;;;;;;5089916;28;20166;-77
2022/05/14 12:33:56;;;;;;;10.82;3.17;;;21.40;89.30;;;;;;5090254;28;20445;-77
2022/05/14 12:36:23;;;;;;;12.00;3.83;;;21.30;91.20;;;;;;5074273;28;20040;-77
2022/05/14 12:38:49;;;;;;;9.43;3.05;;;21.20;91.00;;;;;;5090314;28;20075;-76
2022/05/14 12:41:25;;;;;;;12.75;3.80;;;20.80;92.10;;;;;;5090152;28;20048;-77
2022/05/14 12:43:51;;;;;;;13.20;3.67;;;20.30;92.10;;;;;;5091104;28;20070;-77
2022/05/14 12:46:19;;;;;;;15.85;4.25;;;20.00;92.10;;;;;;5090030;28;20048;-77
2022/05/14 12:48:51;;;;;;;15.65;4.07;;;19.60;92.50;;;;;;5091410;28;20075;-76
2022/05/14 12:51:20;;;;;;;14.10;4.05;;;19.40;93.20;;;;;;5108101;28;20376;-77
2022/05/14 12:53:46;;;;;;;12.27;3.97;;;19.40;93.40;;;;;;5114095;28;20067;-77
2022/05/14 12:56:12;;;;;;;11.98;4.00;;;19.30;93.10;;;;;;5113807;28;20047;-76
2022/05/14 12:58:39;;;;;;;;;;;19.40;93.80;;;;;;5114342;28;20116;-77
2022/05/14 13:01:07;;;;;;;12.93;3.53;;;19.50;93.30;;;;;;5113853;28;19916;-77
2022/05/14 13:03:46;;;;;;;17.77;4.45;;;19.40;94.40;;;;;;5095471;28;20116;-77
2022/05/14 13:06:25;;;;;;;11.35;3.70;;;19.60;93.90;;;;;;5113008;28;20178;-77
2022/05/14 13:08:57;;;;;;;11.75;3.53;;;20.00;94.00;;;;;;5096776;28;20043;-76
2022/05/14 13:11:25;;;;;;;11.77;3.60;;;19.90;93.10;;;;;;5112882;28;20151;-77
2022/05/14 13:14:08;;;;;;;11.57;3.38;;;19.60;93.20;;;;;;5092569;28;20335;-77
2022/05/14 13:16:34;;;;;;;14.10;4.00;;;19.80;94.20;;;;;;5076547;28;20090;-77
2022/05/14 13:19:04;;;;;;;;;;;19.90;93.40;;;;;;5082329;28;20079;-77